sensor_id;sensor_type;location;lat;lon;timestamp;temperature;humidity
939;DHT22;456;53.584;9.968;2022-12-07T00:02:17;17.30;17.70
939;DHT22;456;53.584;9.968;2022-12-07T00:04:43;17.30;17.60
939;DHT22;456;53.584;9.968;2022-12-07T00:07:09;17.20;17.70
939;DHT22;456;53.584;9.968;2022-12-07T00:09:34;17.20;17.80
939;DHT22;456;53.584;9.968;2022-12-07T00:12:00;17.30;17.80
939;DHT22;456;53.584;9.968;2022-12-07T00:14:25;17.30;17.80
939;DHT22;456;53.584;9.968;2022-12-07T00:16:51;17.20;17.70
939;DHT22;456;53.584;9.968;2022-12-07T00:19:17;17.30;17.80
939;DHT22;456;53.584;9.968;2022-12-07T00:21:43;17.20;17.70
939;DHT22;456;53.584;9.968;2022-12-07T00:24:10;17.20;17.70
939;DHT22;456;53.584;9.968;2022-12-07T00:26:37;17.20;17.70
939;DHT22;456;53.584;9.968;2022-12-07T00:29:06;17.20;17.80
939;DHT22;456;53.584;9.968;2022-12-07T00:31:35;17.20;17.80
939;DHT22;456;53.584;9.968;2022-12-07T00:34:07;17.20;17.80
939;DHT22;456;53.584;9.968;2022-12-07T00:36:32;17.20;17.70
939;DHT22;456;53.584;9.968;2022-12-07T00:38:59;17.20;17.80
939;DHT22;456;53.584;9.968;2022-12-07T00:41:28;17.20;17.70
939;DHT22;456;53.584;9.968;2022-12-07T00:43:54;17.20;17.80
939;DHT22;456;53.584;9.968;2022-12-07T00:46:20;17.20;17.80
939;DHT22;456;53.584;9.968;2022-12-07T00:48:47;17.20;17.80
939;DHT22;456;53.584;9.968;2022-12-07T00:51:14;17.20;17.80
939;DHT22;456;53.584;9.968;2022-12-07T00:53:40;17.20;17.80
939;DHT22;456;53.584;9.968;2022-12-07T00:56:11;17.20;17.80
939;DHT22;456;53.584;9.968;2022-12-07T00:58:37;17.20;17.80
939;DHT22;456;53.584;9.968;2022-12-07T01:01:04;17.20;17.80
939;DHT22;456;53.584;9.968;2022-12-07T01:03:30;17.10;17.70
939;DHT22;456;53.584;9.968;2022-12-07T01:05:56;17.10;17.80
939;DHT22;456;53.584;9.968;2022-12-07T01:08:23;17.10;17.80
939;DHT22;456;53.584;9.968;2022-12-07T01:10:49;17.10;17.80
939;DHT22;456;53.584;9.968;2022-12-07T01:13:22;17.10;17.80
939;DHT22;456;53.584;9.968;2022-12-07T01:15:48;17.10;17.80
939;DHT22;456;53.584;9.968;2022-12-07T01:18:13;17.10;17.70
939;DHT22;456;53.584;9.968;2022-12-07T01:20:39;17.10;17.80
939;DHT22;456;53.584;9.968;2022-12-07T01:23:04;17.10;17.90
939;DHT22;456;53.584;9.968;2022-12-07T01:25:30;17.10;17.80
939;DHT22;456;53.584;9.968;2022-12-07T01:27:56;17.10;17.80
939;DHT22;456;53.584;9.968;2022-12-07T01:30:21;17.10;17.70
939;DHT22;456;53.584;9.968;2022-12-07T01:32:47;17.10;17.80
939;DHT22;456;53.584;9.968;2022-12-07T01:35:13;17.10;17.90
939;DHT22;456;53.584;9.968;2022-12-07T01:37:39;17.10;17.90
939;DHT22;456;53.584;9.968;2022-12-07T01:40:06;17.10;17.80
939;DHT22;456;53.584;9.968;2022-12-07T01:42:33;17.10;17.90
939;DHT22;456;53.584;9.968;2022-12-07T01:47:53;17.10;17.90
939;DHT22;456;53.584;9.968;2022-12-07T01:50:21;17.10;17.90
939;DHT22;456;53.584;9.968;2022-12-07T01:52:50;17.10;17.90
939;DHT22;456;53.584;9.968;2022-12-07T01:55:17;17.10;17.90
939;DHT22;456;53.584;9.968;2022-12-07T01:57:47;17.10;17.90
939;DHT22;456;53.584;9.968;2022-12-07T02:00:14;17.10;17.90
939;DHT22;456;53.584;9.968;2022-12-07T02:03:03;17.10;17.90
939;DHT22;456;53.584;9.968;2022-12-07T02:05:30;17.10;18.00
939;DHT22;456;53.584;9.968;2022-12-07T02:07:57;17.10;18.00
939;DHT22;456;53.584;9.968;2022-12-07T02:10:27;17.00;17.90
939;DHT22;456;53.584;9.968;2022-12-07T02:13:07;17.00;17.90
939;DHT22;456;53.584;9.968;2022-12-07T02:15:56;17.00;17.90
939;DHT22;456;53.584;9.968;2022-12-07T02:18:35;17.00;17.90
939;DHT22;456;53.584;9.968;2022-12-07T02:21:20;17.00;17.90
939;DHT22;456;53.584;9.968;2022-12-07T02:31:54;17.00;17.90
939;DHT22;456;53.584;9.968;2022-12-07T02:36:57;17.00;17.90
939;DHT22;456;53.584;9.968;2022-12-07T02:39:41;17.00;17.90
939;DHT22;456;53.584;9.968;2022-12-07T02:42:15;17.00;18.00
939;DHT22;456;53.584;9.968;2022-12-07T02:44:44;17.00;17.90
939;DHT22;456;53.584;9.968;2022-12-07T02:47:13;17.00;17.90
939;DHT22;456;53.584;9.968;2022-12-07T02:49:40;17.00;17.90
939;DHT22;456;53.584;9.968;2022-12-07T02:52:06;17.00;17.80
939;DHT22;456;53.584;9.968;2022-12-07T02:54:31;17.00;17.80
939;DHT22;456;53.584;9.968;2022-12-07T02:57:06;17.00;17.80
939;DHT22;456;53.584;9.968;2022-12-07T03:16:14;17.00;17.80
939;DHT22;456;53.584;9.968;2022-12-07T03:18:59;17.00;17.70
939;DHT22;456;53.584;9.968;2022-12-07T03:21:36;17.00;17.80
939;DHT22;456;53.584;9.968;2022-12-07T03:24:08;17.00;17.80
939;DHT22;456;53.584;9.968;2022-12-07T03:26:38;17.00;17.70
939;DHT22;456;53.584;9.968;2022-12-07T03:29:09;17.00;17.70
939;DHT22;456;53.584;9.968;2022-12-07T03:31:43;17.00;17.70
939;DHT22;456;53.584;9.968;2022-12-07T03:34:17;17.00;17.70
939;DHT22;456;53.584;9.968;2022-12-07T03:36:53;16.90;17.60
939;DHT22;456;53.584;9.968;2022-12-07T03:39:28;17.00;17.70
939;DHT22;456;53.584;9.968;2022-12-07T03:41:57;17.00;17.70
939;DHT22;456;53.584;9.968;2022-12-07T03:44:24;16.90;17.60
939;DHT22;456;53.584;9.968;2022-12-07T03:50:02;17.00;17.60
939;DHT22;456;53.584;9.968;2022-12-07T03:53:13;16.90;17.60
939;DHT22;456;53.584;9.968;2022-12-07T03:55:38;16.90;17.60
939;DHT22;456;53.584;9.968;2022-12-07T03:58:19;17.00;17.70
939;DHT22;456;53.584;9.968;2022-12-07T04:00:46;17.00;17.70
939;DHT22;456;53.584;9.968;2022-12-07T04:03:12;16.90;17.50
939;DHT22;456;53.584;9.968;2022-12-07T04:05:38;16.90;17.50
939;DHT22;456;53.584;9.968;2022-12-07T04:08:04;16.90;17.50
939;DHT22;456;53.584;9.968;2022-12-07T04:10:30;16.90;17.40
939;DHT22;456;53.584;9.968;2022-12-07T04:12:56;16.90;17.50
939;DHT22;456;53.584;9.968;2022-12-07T04:15:21;17.00;17.70
939;DHT22;456;53.584;9.968;2022-12-07T04:17:47;17.00;18.30
939;DHT22;456;53.584;9.968;2022-12-07T04:20:13;17.10;18.30
939;DHT22;456;53.584;9.968;2022-12-07T04:22:38;17.20;18.30
939;DHT22;456;53.584;9.968;2022-12-07T04:25:04;17.20;18.10
939;DHT22;456;53.584;9.968;2022-12-07T04:27:30;17.30;18.10
939;DHT22;456;53.584;9.968;2022-12-07T04:29:56;17.40;18.00
939;DHT22;456;53.584;9.968;2022-12-07T04:32:22;17.40;18.00
939;DHT22;456;53.584;9.968;2022-12-07T04:34:48;17.40;18.00
939;DHT22;456;53.584;9.968;2022-12-07T04:37:13;17.50;18.00
939;DHT22;456;53.584;9.968;2022-12-07T04:39:39;17.50;18.00
939;DHT22;456;53.584;9.968;2022-12-07T04:42:05;17.50;18.00
939;DHT22;456;53.584;9.968;2022-12-07T04:44:30;17.60;18.00
939;DHT22;456;53.584;9.968;2022-12-07T04:46:56;17.60;18.20
939;DHT22;456;53.584;9.968;2022-12-07T04:49:23;17.60;18.10
939;DHT22;456;53.584;9.968;2022-12-07T04:51:49;17.50;17.90
939;DHT22;456;53.584;9.968;2022-12-07T04:54:15;17.50;17.80
939;DHT22;456;53.584;9.968;2022-12-07T04:56:41;17.60;17.90
939;DHT22;456;53.584;9.968;2022-12-07T04:59:07;17.50;17.70
939;DHT22;456;53.584;9.968;2022-12-07T05:01:33;17.60;17.80
939;DHT22;456;53.584;9.968;2022-12-07T05:03:59;17.50;17.70
939;DHT22;456;53.584;9.968;2022-12-07T05:06:25;17.50;17.60
939;DHT22;456;53.584;9.968;2022-12-07T05:08:51;17.50;17.70
939;DHT22;456;53.584;9.968;2022-12-07T05:11:16;17.50;17.80
939;DHT22;456;53.584;9.968;2022-12-07T05:14:02;17.50;17.70
939;DHT22;456;53.584;9.968;2022-12-07T05:16:28;17.50;18.20
939;DHT22;456;53.584;9.968;2022-12-07T05:18:54;17.50;17.60
939;DHT22;456;53.584;9.968;2022-12-07T05:21:20;17.50;17.80
939;DHT22;456;53.584;9.968;2022-12-07T05:23:46;17.50;18.00
939;DHT22;456;53.584;9.968;2022-12-07T05:26:11;17.50;17.80
939;DHT22;456;53.584;9.968;2022-12-07T05:28:37;17.50;17.80
939;DHT22;456;53.584;9.968;2022-12-07T05:31:02;17.60;17.80
939;DHT22;456;53.584;9.968;2022-12-07T05:33:28;17.50;17.60
939;DHT22;456;53.584;9.968;2022-12-07T05:35:54;17.50;17.70
939;DHT22;456;53.584;9.968;2022-12-07T05:38:19;17.50;17.70
939;DHT22;456;53.584;9.968;2022-12-07T05:40:45;17.50;17.70
939;DHT22;456;53.584;9.968;2022-12-07T05:43:10;17.50;17.70
939;DHT22;456;53.584;9.968;2022-12-07T05:45:36;17.50;17.80
939;DHT22;456;53.584;9.968;2022-12-07T05:48:02;17.50;17.60
939;DHT22;456;53.584;9.968;2022-12-07T05:50:27;17.50;17.70
939;DHT22;456;53.584;9.968;2022-12-07T05:52:53;17.50;18.40
939;DHT22;456;53.584;9.968;2022-12-07T05:55:19;17.50;17.80
939;DHT22;456;53.584;9.968;2022-12-07T05:57:45;17.50;18.00
939;DHT22;456;53.584;9.968;2022-12-07T06:00:31;17.50;17.80
939;DHT22;456;53.584;9.968;2022-12-07T06:02:56;17.50;18.00
939;DHT22;456;53.584;9.968;2022-12-07T06:05:22;17.50;17.80
939;DHT22;456;53.584;9.968;2022-12-07T06:07:48;17.50;17.80
939;DHT22;456;53.584;9.968;2022-12-07T06:10:14;17.50;17.80
939;DHT22;456;53.584;9.968;2022-12-07T06:12:40;17.50;17.80
939;DHT22;456;53.584;9.968;2022-12-07T06:15:09;17.50;17.80
939;DHT22;456;53.584;9.968;2022-12-07T06:17:35;17.50;17.70
939;DHT22;456;53.584;9.968;2022-12-07T06:20:01;17.50;17.80
939;DHT22;456;53.584;9.968;2022-12-07T06:22:27;17.50;17.80
939;DHT22;456;53.584;9.968;2022-12-07T06:24:53;17.60;18.00
939;DHT22;456;53.584;9.968;2022-12-07T06:27:19;17.60;18.00
939;DHT22;456;53.584;9.968;2022-12-07T06:29:44;17.60;17.90
939;DHT22;456;53.584;9.968;2022-12-07T06:32:10;17.60;17.80
939;DHT22;456;53.584;9.968;2022-12-07T06:34:36;17.70;18.00
939;DHT22;456;53.584;9.968;2022-12-07T06:37:02;17.70;18.00
939;DHT22;456;53.584;9.968;2022-12-07T06:39:28;17.70;18.00
939;DHT22;456;53.584;9.968;2022-12-07T06:41:55;17.70;18.10
939;DHT22;456;53.584;9.968;2022-12-07T06:44:21;17.70;18.10
939;DHT22;456;53.584;9.968;2022-12-07T06:46:48;17.70;18.20
939;DHT22;456;53.584;9.968;2022-12-07T06:49:13;17.70;18.20
939;DHT22;456;53.584;9.968;2022-12-07T06:51:39;17.70;18.10
939;DHT22;456;53.584;9.968;2022-12-07T06:54:10;17.70;18.20
939;DHT22;456;53.584;9.968;2022-12-07T06:56:36;17.70;18.20
939;DHT22;456;53.584;9.968;2022-12-07T06:59:03;17.60;18.10
939;DHT22;456;53.584;9.968;2022-12-07T07:01:30;17.60;18.30
939;DHT22;456;53.584;9.968;2022-12-07T07:03:56;17.60;18.30
939;DHT22;456;53.584;9.968;2022-12-07T07:06:22;17.60;18.20
939;DHT22;456;53.584;9.968;2022-12-07T07:08:49;17.60;18.20
939;DHT22;456;53.584;9.968;2022-12-07T07:11:15;17.60;18.20
939;DHT22;456;53.584;9.968;2022-12-07T07:13:41;17.60;18.20
939;DHT22;456;53.584;9.968;2022-12-07T07:16:07;17.60;18.20
939;DHT22;456;53.584;9.968;2022-12-07T07:18:32;17.60;18.20
939;DHT22;456;53.584;9.968;2022-12-07T07:20:58;17.60;18.10
939;DHT22;456;53.584;9.968;2022-12-07T07:23:24;17.60;18.00
939;DHT22;456;53.584;9.968;2022-12-07T07:25:49;17.60;18.10
939;DHT22;456;53.584;9.968;2022-12-07T07:28:16;17.60;18.00
939;DHT22;456;53.584;9.968;2022-12-07T07:30:41;17.60;18.10
939;DHT22;456;53.584;9.968;2022-12-07T07:33:07;17.60;18.00
939;DHT22;456;53.584;9.968;2022-12-07T08:42:13;17.50;18.50
939;DHT22;456;53.584;9.968;2022-12-07T08:44:38;17.40;18.50
939;DHT22;456;53.584;9.968;2022-12-07T08:47:06;17.40;18.50
939;DHT22;456;53.584;9.968;2022-12-07T08:52:57;17.40;18.50
939;DHT22;456;53.584;9.968;2022-12-07T08:55:23;17.40;18.80
939;DHT22;456;53.584;9.968;2022-12-07T08:57:50;17.30;18.70
939;DHT22;456;53.584;9.968;2022-12-07T09:00:16;17.30;18.70
939;DHT22;456;53.584;9.968;2022-12-07T09:02:45;17.40;18.90
939;DHT22;456;53.584;9.968;2022-12-07T09:05:12;17.40;18.70
939;DHT22;456;53.584;9.968;2022-12-07T09:07:38;17.30;18.60
939;DHT22;456;53.584;9.968;2022-12-07T09:10:04;17.40;18.60
939;DHT22;456;53.584;9.968;2022-12-07T09:12:30;17.40;18.90
939;DHT22;456;53.584;9.968;2022-12-07T09:14:56;17.30;19.00
939;DHT22;456;53.584;9.968;2022-12-07T09:17:22;17.40;18.90
939;DHT22;456;53.584;9.968;2022-12-07T09:19:47;17.30;18.90
939;DHT22;456;53.584;9.968;2022-12-07T09:22:13;17.30;18.90
939;DHT22;456;53.584;9.968;2022-12-07T09:24:39;17.30;19.00
939;DHT22;456;53.584;9.968;2022-12-07T09:27:04;17.30;18.90
939;DHT22;456;53.584;9.968;2022-12-07T09:29:30;17.30;19.00
939;DHT22;456;53.584;9.968;2022-12-07T09:31:55;17.30;19.20
939;DHT22;456;53.584;9.968;2022-12-07T09:34:21;17.30;19.00
939;DHT22;456;53.584;9.968;2022-12-07T09:36:47;17.30;18.90
939;DHT22;456;53.584;9.968;2022-12-07T09:39:12;17.30;19.00
939;DHT22;456;53.584;9.968;2022-12-07T09:41:40;17.30;19.00
939;DHT22;456;53.584;9.968;2022-12-07T09:44:12;17.20;19.00
939;DHT22;456;53.584;9.968;2022-12-07T09:46:40;17.30;19.00
939;DHT22;456;53.584;9.968;2022-12-07T09:49:21;17.30;19.20
939;DHT22;456;53.584;9.968;2022-12-07T09:51:58;17.30;19.20
939;DHT22;456;53.584;9.968;2022-12-07T09:54:24;17.30;19.20
939;DHT22;456;53.584;9.968;2022-12-07T09:56:50;17.30;19.20
939;DHT22;456;53.584;9.968;2022-12-07T09:59:19;17.20;19.20
939;DHT22;456;53.584;9.968;2022-12-07T10:01:49;17.30;19.00
939;DHT22;456;53.584;9.968;2022-12-07T10:06:41;17.20;19.20
939;DHT22;456;53.584;9.968;2022-12-07T10:09:12;17.20;19.30
939;DHT22;456;53.584;9.968;2022-12-07T10:14:28;17.20;19.00
939;DHT22;456;53.584;9.968;2022-12-07T10:16:54;17.30;19.50
939;DHT22;456;53.584;9.968;2022-12-07T10:19:31;17.20;19.30
939;DHT22;456;53.584;9.968;2022-12-07T10:22:10;17.20;19.20
939;DHT22;456;53.584;9.968;2022-12-07T10:24:37;17.20;19.30
939;DHT22;456;53.584;9.968;2022-12-07T10:27:05;17.20;19.40
939;DHT22;456;53.584;9.968;2022-12-07T10:29:33;17.20;19.50
939;DHT22;456;53.584;9.968;2022-12-07T10:32:34;17.20;19.50
939;DHT22;456;53.584;9.968;2022-12-07T10:37:45;17.20;19.40
939;DHT22;456;53.584;9.968;2022-12-07T10:40:35;17.20;19.30
939;DHT22;456;53.584;9.968;2022-12-07T10:46:10;17.20;19.50
939;DHT22;456;53.584;9.968;2022-12-07T10:51:12;17.20;19.50
939;DHT22;456;53.584;9.968;2022-12-07T10:53:54;17.20;19.50
939;DHT22;456;53.584;9.968;2022-12-07T11:01:24;17.20;19.60
939;DHT22;456;53.584;9.968;2022-12-07T11:06:46;17.20;20.00
939;DHT22;456;53.584;9.968;2022-12-07T11:23:13;17.10;19.90
939;DHT22;456;53.584;9.968;2022-12-07T11:25:49;17.10;19.90
939;DHT22;456;53.584;9.968;2022-12-07T11:28:29;17.10;19.90
939;DHT22;456;53.584;9.968;2022-12-07T11:36:44;17.10;19.60
939;DHT22;456;53.584;9.968;2022-12-07T11:41:49;17.10;19.50
939;DHT22;456;53.584;9.968;2022-12-07T11:44:31;17.10;19.80
939;DHT22;456;53.584;9.968;2022-12-07T11:47:07;17.10;19.90
939;DHT22;456;53.584;9.968;2022-12-07T11:52:47;17.10;19.90
939;DHT22;456;53.584;9.968;2022-12-07T11:55:44;17.10;19.80
939;DHT22;456;53.584;9.968;2022-12-07T12:01:08;17.10;19.90
939;DHT22;456;53.584;9.968;2022-12-07T12:03:40;17.10;19.90
939;DHT22;456;53.584;9.968;2022-12-07T12:06:06;17.10;19.90
939;DHT22;456;53.584;9.968;2022-12-07T12:08:58;17.10;19.90
939;DHT22;456;53.584;9.968;2022-12-07T12:11:36;17.10;20.40
939;DHT22;456;53.584;9.968;2022-12-07T12:22:32;17.10;19.90
939;DHT22;456;53.584;9.968;2022-12-07T12:24:59;17.10;19.80
939;DHT22;456;53.584;9.968;2022-12-07T12:27:27;17.10;19.90
939;DHT22;456;53.584;9.968;2022-12-07T12:30:00;17.10;19.90
939;DHT22;456;53.584;9.968;2022-12-07T12:32:40;17.10;20.00
939;DHT22;456;53.584;9.968;2022-12-07T12:37:52;17.10;20.10
939;DHT22;456;53.584;9.968;2022-12-07T12:42:48;17.10;20.20
939;DHT22;456;53.584;9.968;2022-12-07T12:45:32;17.10;20.40
939;DHT22;456;53.584;9.968;2022-12-07T12:48:01;17.10;20.40
939;DHT22;456;53.584;9.968;2022-12-07T12:50:33;17.00;19.90
939;DHT22;456;53.584;9.968;2022-12-07T12:58:37;17.00;20.20
939;DHT22;456;53.584;9.968;2022-12-07T13:01:32;17.10;20.50
939;DHT22;456;53.584;9.968;2022-12-07T13:04:02;17.00;20.10
939;DHT22;456;53.584;9.968;2022-12-07T13:08:57;17.00;20.50
939;DHT22;456;53.584;9.968;2022-12-07T13:11:32;17.00;20.40
939;DHT22;456;53.584;9.968;2022-12-07T13:17:02;17.00;20.40
939;DHT22;456;53.584;9.968;2022-12-07T13:22:38;17.00;19.90
939;DHT22;456;53.584;9.968;2022-12-07T13:27:39;17.10;20.50
939;DHT22;456;53.584;9.968;2022-12-07T13:30:24;17.10;20.50
939;DHT22;456;53.584;9.968;2022-12-07T13:32:52;17.10;20.30
939;DHT22;456;53.584;9.968;2022-12-07T13:37:54;17.10;19.60
939;DHT22;456;53.584;9.968;2022-12-07T13:40:21;17.20;19.60
939;DHT22;456;53.584;9.968;2022-12-07T13:42:47;17.20;19.60
939;DHT22;456;53.584;9.968;2022-12-07T13:45:30;17.40;19.60
939;DHT22;456;53.584;9.968;2022-12-07T13:48:43;17.40;19.50
939;DHT22;456;53.584;9.968;2022-12-07T13:51:24;17.50;19.60
939;DHT22;456;53.584;9.968;2022-12-07T13:53:55;17.50;19.60
939;DHT22;456;53.584;9.968;2022-12-07T13:56:31;17.60;19.70
939;DHT22;456;53.584;9.968;2022-12-07T13:58:58;17.60;19.70
939;DHT22;456;53.584;9.968;2022-12-07T14:01:24;17.70;19.60
939;DHT22;456;53.584;9.968;2022-12-07T14:03:50;17.70;19.80
939;DHT22;456;53.584;9.968;2022-12-07T14:08:47;17.70;19.80
939;DHT22;456;53.584;9.968;2022-12-07T14:11:17;17.70;19.80
939;DHT22;456;53.584;9.968;2022-12-07T14:13:56;17.70;19.80
939;DHT22;456;53.584;9.968;2022-12-07T14:16:36;17.70;19.70
939;DHT22;456;53.584;9.968;2022-12-07T14:19:38;17.70;19.80
939;DHT22;456;53.584;9.968;2022-12-07T14:22:16;17.70;19.80
939;DHT22;456;53.584;9.968;2022-12-07T14:24:44;17.70;19.90
939;DHT22;456;53.584;9.968;2022-12-07T14:27:36;17.70;19.90
939;DHT22;456;53.584;9.968;2022-12-07T14:30:03;17.70;19.90
939;DHT22;456;53.584;9.968;2022-12-07T14:32:30;17.70;19.90
939;DHT22;456;53.584;9.968;2022-12-07T14:35:07;17.70;19.90
939;DHT22;456;53.584;9.968;2022-12-07T14:37:33;17.70;20.00
939;DHT22;456;53.584;9.968;2022-12-07T14:39:59;17.70;20.00
939;DHT22;456;53.584;9.968;2022-12-07T14:42:27;17.70;20.00
939;DHT22;456;53.584;9.968;2022-12-07T14:44:54;17.60;19.90
939;DHT22;456;53.584;9.968;2022-12-07T14:47:19;17.60;20.00
939;DHT22;456;53.584;9.968;2022-12-07T14:49:45;17.60;19.90
939;DHT22;456;53.584;9.968;2022-12-07T14:52:17;17.60;19.90
939;DHT22;456;53.584;9.968;2022-12-07T14:54:43;17.60;20.00
939;DHT22;456;53.584;9.968;2022-12-07T14:57:10;17.60;19.90
939;DHT22;456;53.584;9.968;2022-12-07T14:59:36;17.60;19.90
939;DHT22;456;53.584;9.968;2022-12-07T15:02:02;17.60;19.90
939;DHT22;456;53.584;9.968;2022-12-07T15:04:28;17.60;19.90
939;DHT22;456;53.584;9.968;2022-12-07T15:06:58;17.60;19.90
939;DHT22;456;53.584;9.968;2022-12-07T15:09:24;17.60;19.90
939;DHT22;456;53.584;9.968;2022-12-07T15:11:50;17.60;19.70
939;DHT22;456;53.584;9.968;2022-12-07T15:14:15;17.60;19.90
939;DHT22;456;53.584;9.968;2022-12-07T15:16:42;17.60;19.90
939;DHT22;456;53.584;9.968;2022-12-07T15:19:13;17.60;19.90
939;DHT22;456;53.584;9.968;2022-12-07T15:21:39;17.50;19.80
939;DHT22;456;53.584;9.968;2022-12-07T15:24:05;17.60;19.90
939;DHT22;456;53.584;9.968;2022-12-07T15:26:31;17.50;19.80
939;DHT22;456;53.584;9.968;2022-12-07T15:28:56;17.60;19.90
939;DHT22;456;53.584;9.968;2022-12-07T15:31:22;17.60;19.90
939;DHT22;456;53.584;9.968;2022-12-07T15:33:47;17.60;19.90
939;DHT22;456;53.584;9.968;2022-12-07T15:36:25;17.60;19.90
939;DHT22;456;53.584;9.968;2022-12-07T15:38:51;17.60;19.90
939;DHT22;456;53.584;9.968;2022-12-07T15:41:17;17.60;19.90
939;DHT22;456;53.584;9.968;2022-12-07T15:43:43;17.60;19.90
939;DHT22;456;53.584;9.968;2022-12-07T15:46:35;17.60;19.80
939;DHT22;456;53.584;9.968;2022-12-07T15:49:01;17.60;19.80
939;DHT22;456;53.584;9.968;2022-12-07T15:51:27;17.60;20.00
939;DHT22;456;53.584;9.968;2022-12-07T15:53:53;17.60;20.00
939;DHT22;456;53.584;9.968;2022-12-07T15:56:19;17.60;20.00
939;DHT22;456;53.584;9.968;2022-12-07T15:58:45;17.60;20.00
939;DHT22;456;53.584;9.968;2022-12-07T16:01:18;17.70;20.10
939;DHT22;456;53.584;9.968;2022-12-07T16:03:44;17.70;20.00
939;DHT22;456;53.584;9.968;2022-12-07T16:06:11;17.70;20.00
939;DHT22;456;53.584;9.968;2022-12-07T16:08:41;17.70;20.00
939;DHT22;456;53.584;9.968;2022-12-07T16:11:07;17.70;20.10
939;DHT22;456;53.584;9.968;2022-12-07T16:13:33;17.70;20.60
939;DHT22;456;53.584;9.968;2022-12-07T16:16:06;17.70;20.10
939;DHT22;456;53.584;9.968;2022-12-07T16:18:32;17.70;20.10
939;DHT22;456;53.584;9.968;2022-12-07T16:20:58;17.70;20.10
939;DHT22;456;53.584;9.968;2022-12-07T16:23:24;17.70;20.10
939;DHT22;456;53.584;9.968;2022-12-07T16:25:49;17.70;20.10
939;DHT22;456;53.584;9.968;2022-12-07T16:28:15;17.60;20.00
939;DHT22;456;53.584;9.968;2022-12-07T16:30:40;17.70;20.10
939;DHT22;456;53.584;9.968;2022-12-07T16:33:06;17.60;20.00
939;DHT22;456;53.584;9.968;2022-12-07T16:35:32;17.60;20.00
939;DHT22;456;53.584;9.968;2022-12-07T16:37:57;17.60;20.00
939;DHT22;456;53.584;9.968;2022-12-07T16:40:23;17.70;20.00
939;DHT22;456;53.584;9.968;2022-12-07T16:42:49;17.70;20.10
939;DHT22;456;53.584;9.968;2022-12-07T16:45:14;17.70;20.00
939;DHT22;456;53.584;9.968;2022-12-07T16:47:41;17.60;19.90
939;DHT22;456;53.584;9.968;2022-12-07T16:50:07;17.60;20.10
939;DHT22;456;53.584;9.968;2022-12-07T16:52:33;17.60;20.10
939;DHT22;456;53.584;9.968;2022-12-07T16:54:59;17.60;20.30
939;DHT22;456;53.584;9.968;2022-12-07T16:57:24;17.60;19.70
939;DHT22;456;53.584;9.968;2022-12-07T16:59:51;17.60;20.20
939;DHT22;456;53.584;9.968;2022-12-07T17:02:17;17.60;19.90
939;DHT22;456;53.584;9.968;2022-12-07T17:04:43;17.60;20.20
939;DHT22;456;53.584;9.968;2022-12-07T17:07:08;17.60;19.90
939;DHT22;456;53.584;9.968;2022-12-07T17:09:34;17.60;20.00
939;DHT22;456;53.584;9.968;2022-12-07T17:12:00;17.60;20.50
939;DHT22;456;53.584;9.968;2022-12-07T17:14:26;17.60;19.90
939;DHT22;456;53.584;9.968;2022-12-07T17:17:10;17.60;20.00
939;DHT22;456;53.584;9.968;2022-12-07T17:19:36;17.60;19.90
939;DHT22;456;53.584;9.968;2022-12-07T17:22:02;17.60;20.00
939;DHT22;456;53.584;9.968;2022-12-07T17:24:28;17.60;19.90
939;DHT22;456;53.584;9.968;2022-12-07T17:26:54;17.50;19.90
939;DHT22;456;53.584;9.968;2022-12-07T17:29:20;17.60;19.90
939;DHT22;456;53.584;9.968;2022-12-07T17:31:47;17.60;19.90
939;DHT22;456;53.584;9.968;2022-12-07T17:34:14;17.50;19.90
939;DHT22;456;53.584;9.968;2022-12-07T17:36:40;17.50;19.90
939;DHT22;456;53.584;9.968;2022-12-07T17:39:10;17.50;19.90
939;DHT22;456;53.584;9.968;2022-12-07T17:41:37;17.60;19.90
939;DHT22;456;53.584;9.968;2022-12-07T17:44:21;17.60;20.00
939;DHT22;456;53.584;9.968;2022-12-07T17:46:49;17.60;19.90
939;DHT22;456;53.584;9.968;2022-12-07T17:49:19;17.60;19.90
939;DHT22;456;53.584;9.968;2022-12-07T17:51:45;17.60;19.90
939;DHT22;456;53.584;9.968;2022-12-07T17:54:29;17.60;20.00
939;DHT22;456;53.584;9.968;2022-12-07T17:56:54;17.60;19.90
939;DHT22;456;53.584;9.968;2022-12-07T17:59:20;17.60;19.90
939;DHT22;456;53.584;9.968;2022-12-07T18:01:46;17.70;19.90
939;DHT22;456;53.584;9.968;2022-12-07T18:04:11;17.60;19.90
939;DHT22;456;53.584;9.968;2022-12-07T18:06:37;17.70;20.00
939;DHT22;456;53.584;9.968;2022-12-07T18:09:03;17.70;19.80
939;DHT22;456;53.584;9.968;2022-12-07T18:11:30;17.70;19.90
939;DHT22;456;53.584;9.968;2022-12-07T18:13:55;17.60;19.80
939;DHT22;456;53.584;9.968;2022-12-07T18:16:23;17.60;19.70
939;DHT22;456;53.584;9.968;2022-12-07T18:18:50;17.60;19.80
939;DHT22;456;53.584;9.968;2022-12-07T18:21:23;17.60;19.80
939;DHT22;456;53.584;9.968;2022-12-07T18:23:51;17.60;19.70
939;DHT22;456;53.584;9.968;2022-12-07T18:26:18;17.60;19.80
939;DHT22;456;53.584;9.968;2022-12-07T18:28:44;17.60;19.80
939;DHT22;456;53.584;9.968;2022-12-07T18:31:11;17.60;19.70
939;DHT22;456;53.584;9.968;2022-12-07T18:33:38;17.60;19.70
939;DHT22;456;53.584;9.968;2022-12-07T18:36:04;17.60;19.80
939;DHT22;456;53.584;9.968;2022-12-07T18:38:30;17.60;19.80
939;DHT22;456;53.584;9.968;2022-12-07T18:40:56;17.60;19.80
939;DHT22;456;53.584;9.968;2022-12-07T18:43:22;17.60;19.80
939;DHT22;456;53.584;9.968;2022-12-07T18:45:50;17.60;19.80
939;DHT22;456;53.584;9.968;2022-12-07T18:48:17;17.60;19.80
939;DHT22;456;53.584;9.968;2022-12-07T18:50:44;17.60;19.80
939;DHT22;456;53.584;9.968;2022-12-07T18:53:11;17.60;19.70
939;DHT22;456;53.584;9.968;2022-12-07T18:55:37;17.60;19.80
939;DHT22;456;53.584;9.968;2022-12-07T18:58:03;17.60;19.80
939;DHT22;456;53.584;9.968;2022-12-07T19:00:30;17.60;19.80
939;DHT22;456;53.584;9.968;2022-12-07T19:02:57;17.60;19.80
939;DHT22;456;53.584;9.968;2022-12-07T19:05:22;17.60;19.90
939;DHT22;456;53.584;9.968;2022-12-07T19:07:49;17.60;19.90
939;DHT22;456;53.584;9.968;2022-12-07T19:10:17;17.70;20.00
939;DHT22;456;53.584;9.968;2022-12-07T19:12:43;17.70;20.00
939;DHT22;456;53.584;9.968;2022-12-07T19:15:11;17.70;20.00
939;DHT22;456;53.584;9.968;2022-12-07T19:17:37;17.70;19.90
939;DHT22;456;53.584;9.968;2022-12-07T19:20:04;17.70;20.00
939;DHT22;456;53.584;9.968;2022-12-07T19:22:30;17.70;20.00
939;DHT22;456;53.584;9.968;2022-12-07T19:24:55;17.70;20.00
939;DHT22;456;53.584;9.968;2022-12-07T19:27:22;17.70;20.60
939;DHT22;456;53.584;9.968;2022-12-07T19:29:48;17.70;20.00
939;DHT22;456;53.584;9.968;2022-12-07T19:32:15;17.70;20.00
939;DHT22;456;53.584;9.968;2022-12-07T19:34:42;17.70;20.60
939;DHT22;456;53.584;9.968;2022-12-07T19:37:09;17.70;20.10
939;DHT22;456;53.584;9.968;2022-12-07T19:39:39;17.70;20.10
939;DHT22;456;53.584;9.968;2022-12-07T19:42:06;17.70;20.00
939;DHT22;456;53.584;9.968;2022-12-07T19:44:31;17.70;20.10
939;DHT22;456;53.584;9.968;2022-12-07T19:47:00;17.70;20.10
939;DHT22;456;53.584;9.968;2022-12-07T19:49:27;17.70;20.00
939;DHT22;456;53.584;9.968;2022-12-07T19:51:55;17.70;20.00
939;DHT22;456;53.584;9.968;2022-12-07T19:54:24;17.70;19.90